Airfield :
LOGIN :

Register | Disclaimer

   EN    FR    IT 

 










Legend :    VFR   Marginal VFR   IFR   Intensive IFR   Very Intensive IFR
Visi :
Ceiling :
>= 8 km
>= 3000ft
5 to 8 km
1000 to 3000 ft
1500m to 5 km
500 to 1000 ft
800 to 1500m
200 to 500 ft
< 800m
< 200 ft
Symbols :   Thunderstorms  Fog  Heavy snow  Heavy precipitations  Wind > 20 kt
SIGMETs :     Misc.  Thunderstorms  Icing  Turbulence  Mountain Waves  Volcanic Ashes






- Airport Elevation : 485 ft
- IATA code : QSA


LELL - Sabadell

CURRENT METAR :
  • 030630Z 00000KT 9999 FEW020 22/18 Q1017

EXPIRED METARs :
  • 030600Z 27002KT 9999 FEW020 20/18 Q1017
  • 030530Z AUTO 27001KT 9999 BKN018 19/18 Q1017
  • 030500Z AUTO 29003KT 9999 SCT018 18/17 Q1017
  • 030430Z AUTO 27002KT CAVOK 18/17 Q1017
  • 030400Z AUTO 00000KT CAVOK 19/17 Q1017

TAF TAF LELL
Valid from the 03 at 03:00 until the 04 at 03:00 UTC


030200Z 0303/0403 VRB03KT 9999 FEW020 TX29/0313Z TN17/0305Z
PROB30
TEMPO 0303/0306 3000 BR BKN012
BECMG 0310/0312 19010KT
BECMG 0318/0320 VRB04KT



MET'MAP, your aeronautical weather chart ! - Copyright ORBIFLY December 2007 - Disclaimer

ORBIFLY MET'MAP TEAM :

Programming & Development : Alexandra Zaïnal
Concept & original design : Baudouin d'Aumeries
Assistance for programming : Marc-Olivier Méhu
Technical & hardware support : Manuel Goepfert

Contact : metmap@orbifly.com




SOURCES & CREDITS :

   NOAA